Date,TemperatureHighF,TemperatureAvgF,TemperatureLowF,DewpointHighF,DewpointAvgF,DewpointLowF,HumidityHigh,HumidityAvg,HumidityLow,PressureMaxIn,PressureMinIn,WindSpeedMaxMPH,WindSpeedAvgMPH,GustSpeedMaxMPH,PrecipitationSumIn
2013-1-1,35.1,27.2,20.6,20.0,14.1,10.0,76,59,42,30.32,30.06,13,3,17,0.00
2013-1-2,34.6,23.6,9.9,12.0,8.5,3.0,82,55,27,30.39,30.25,11,2,19,0.00
2013-1-3,35.0,25.8,16.3,15.0,11.9,6.0,73,57,43,30.45,30.33,11,4,24,0.00
2013-1-4,35.3,21.7,10.7,12.0,5.6,1.0,74,52,28,30.48,30.31,5,1,8,0.00
2013-1-5,42.2,26.7,12.7,9.0,4.5,0.0,60,41,21,30.51,30.39,5,1,11,0.00
2013-1-6,43.6,27.8,11.5,11.0,6.9,3.0,72,44,22,30.50,30.19,5,1,9,0.00
2013-1-7,49.5,35.9,27.8,17.0,12.7,9.0,51,40,26,30.19,29.92,7,1,11,0.00
2013-1-8,48.8,34.7,23.3,17.0,12.5,10.0,61,42,21,30.25,29.93,13,4,18,0.00
2013-1-9,52.0,36.1,24.9,14.0,12.5,10.0,56,40,21,30.44,30.13,11,2,14,0.00
2013-1-10,46.6,33.9,21.0,21.0,13.1,9.0,65,44,26,30.13,29.73,9,2,13,0.00
2013-1-11,40.7,32.8,22.2,24.0,4.8,-12.0,62,33,14,29.89,29.59,19,7,30,0.00
2013-1-12,31.2,21.2,12.4,0.0,-5.5,-13.0,49,32,18,30.15,29.90,10,2,19,0.00
2013-1-13,31.4,17.5,7.2,3.0,-3.5,-10.0,60,41,23,30.25,30.10,8,1,12,0.00
2013-1-14,28.7,22.5,14.3,22.0,12.8,4.0,83,67,51,30.22,30.04,16,4,21,0.00
2013-1-15,24.5,15.7,5.5,6.0,0.8,-2.0,80,54,34,30.58,30.22,12,3,17,0.00
2013-1-16,37.6,24.7,11.1,13.0,6.4,-2.0,62,47,33,30.65,30.48,8,2,12,0.00
2013-1-17,51.5,31.1,15.2,16.0,12.6,8.0,75,50,23,30.64,30.45,4,1,6,0.00
2013-1-18,52.2,34.5,20.4,19.0,15.7,13.0,78,50,25,30.45,30.25,3,0,6,0.00
2013-1-19,51.9,34.5,23.4,18.0,15.0,11.0,69,48,20,30.40,30.27,8,1,11,0.00
2013-1-20,54.3,35.9,19.3,16.0,12.1,7.0,68,42,18,30.35,30.18,6,1,13,0.00
2013-1-21,52.7,36.7,19.0,17.0,11.1,4.0,59,37,19,30.33,30.18,8,2,11,0.00
2013-1-22,58.4,39.5,23.0,17.0,12.5,7.0,69,38,15,30.33,30.19,9,1,14,0.00
2013-1-23,59.4,39.4,22.4,14.0,9.0,4.0,60,32,11,30.37,30.23,6,1,8,0.00
2013-1-24,61.8,44.5,26.4,34.0,14.8,7.0,58,33,15,30.30,30.11,9,1,14,0.00
2013-1-25,57.3,47.3,36.0,38.0,33.4,29.0,76,59,48,30.18,30.02,5,1,8,0.00
2013-1-26,56.0,47.1,40.9,49.0,40.1,33.0,89,77,62,30.04,29.74,15,2,25,0.10
2013-1-27,59.5,48.0,40.0,40.0,36.2,31.0,89,66,34,29.86,29.75,16,4,21,0.00
2013-1-28,54.8,44.2,37.0,38.0,31.3,17.0,85,63,34,29.78,29.58,19,6,26,0.00
2013-1-29,36.4,31.6,26.9,21.0,13.0,1.0,70,47,25,30.01,29.61,19,7,32,0.00
2013-1-30,40.7,31.4,21.9,15.0,12.5,6.0,66,48,29,30.27,30.01,22,4,27,0.00
2013-1-31,51.7,36.5,21.1,23.0,18.0,14.0,77,51,24,30.36,30.22,9,2,17,0.00